createdAt,value
2019-03-01T00:00:59.315Z,7.00
2019-03-01T00:03:29.927Z,7.00
2019-03-01T00:06:11.231Z,7.00
2019-03-01T00:09:17.164Z,7.00
2019-03-01T00:12:03.186Z,6.90
2019-03-01T00:14:55.372Z,6.90
2019-03-01T00:17:51.676Z,6.90
2019-03-01T00:20:43.679Z,6.90
2019-03-01T00:23:16.474Z,6.90
2019-03-01T00:25:56.055Z,6.90
2019-03-01T00:28:36.026Z,6.90
2019-03-01T00:31:24.220Z,6.90
2019-03-01T00:34:12.238Z,6.80
2019-03-01T00:36:56.449Z,6.80
2019-03-01T00:39:44.463Z,6.80
2019-03-01T00:42:39.400Z,6.80
2019-03-01T00:45:10.240Z,6.80
2019-03-01T00:47:41.179Z,6.70
2019-03-01T00:50:12.783Z,6.70
2019-03-01T00:52:42.618Z,6.70
2019-03-01T00:55:13.459Z,6.60
2019-03-01T00:57:44.279Z,6.60
2019-03-01T01:00:21.007Z,6.60
2019-03-01T01:02:52.209Z,6.60
2019-03-01T01:05:23.179Z,6.60
2019-03-01T01:07:54.259Z,6.60
2019-03-01T01:10:25.607Z,6.60
2019-03-01T01:12:56.478Z,6.60
2019-03-01T01:15:26.400Z,6.50
2019-03-01T01:17:57.866Z,6.50
2019-03-01T01:20:29.093Z,6.50
2019-03-01T01:22:59.960Z,6.40
2019-03-01T01:25:29.837Z,6.50
2019-03-01T01:27:59.649Z,6.40
2019-03-01T01:30:30.571Z,6.40
2019-03-01T01:33:01.775Z,6.40
2019-03-01T01:35:33.459Z,6.40
2019-03-01T01:38:04.538Z,6.40
2019-03-01T01:40:35.575Z,6.40
2019-03-01T01:43:05.919Z,6.40
2019-03-01T01:45:38.087Z,6.40
2019-03-01T01:48:07.979Z,6.40
2019-03-01T01:50:38.957Z,6.40
2019-03-01T01:53:08.848Z,6.40
2019-03-01T01:55:38.714Z,6.40
2019-03-01T01:58:08.441Z,6.30
2019-03-01T02:00:38.294Z,6.30
2019-03-01T02:03:08.093Z,6.30
2019-03-01T02:05:40.828Z,6.30
2019-03-01T02:08:11.669Z,6.30
2019-03-01T02:10:42.899Z,6.30
2019-03-01T02:13:13.027Z,6.30
2019-03-01T02:15:44.064Z,6.30
2019-03-01T02:18:13.889Z,6.30
2019-03-01T02:20:43.804Z,6.20
2019-03-01T02:23:13.659Z,6.20
2019-03-01T02:25:44.741Z,6.20
2019-03-01T02:28:14.584Z,6.20
2019-03-01T02:30:49.593Z,6.20
2019-03-01T02:33:19.448Z,6.10
2019-03-01T02:35:52.313Z,6.10
2019-03-01T02:38:25.504Z,6.10
2019-03-01T02:40:55.352Z,6.00
2019-03-01T02:43:26.336Z,6.00
2019-03-01T02:45:58.522Z,6.00
2019-03-01T02:48:28.353Z,6.00
2019-03-01T02:50:58.237Z,6.00
2019-03-01T02:53:31.219Z,6.00
2019-03-01T02:56:02.067Z,6.00
2019-03-01T02:58:32.972Z,6.00
2019-03-01T03:01:03.820Z,6.00
2019-03-01T03:03:34.689Z,6.00
2019-03-01T03:06:23.967Z,5.90
2019-03-01T03:08:54.867Z,5.90
2019-03-01T03:11:25.748Z,5.90
2019-03-01T03:14:00.583Z,5.90
2019-03-01T03:16:30.620Z,5.90
2019-03-01T03:19:02.941Z,5.80
2019-03-01T03:21:33.849Z,5.80
2019-03-01T03:24:04.861Z,5.70
2019-03-01T03:26:35.658Z,5.70
2019-03-01T03:29:05.601Z,5.70
2019-03-01T03:31:55.787Z,5.70
2019-03-01T03:34:25.153Z,5.70
2019-03-01T03:36:55.065Z,5.70
2019-03-01T03:39:26.705Z,5.80
2019-03-01T03:41:57.911Z,5.80
2019-03-01T03:44:28.658Z,5.80
2019-03-01T03:46:59.578Z,5.80
2019-03-01T03:49:30.407Z,5.80
2019-03-01T03:52:02.826Z,5.80
2019-03-01T03:54:32.711Z,5.80
2019-03-01T03:57:05.921Z,5.80
2019-03-01T03:59:35.846Z,5.80
2019-03-01T04:02:07.689Z,5.80
2019-03-01T04:04:37.679Z,5.80
2019-03-01T04:07:08.582Z,5.80
2019-03-01T04:09:38.555Z,5.80
2019-03-01T04:12:09.323Z,5.80
2019-03-01T04:14:39.095Z,5.80
2019-03-01T04:17:09.948Z,5.80
2019-03-01T04:19:40.827Z,5.80
2019-03-01T04:22:11.816Z,5.80
2019-03-01T04:24:42.781Z,5.70
2019-03-01T04:27:15.813Z,5.70
2019-03-01T04:29:46.689Z,5.70
2019-03-01T04:32:18.450Z,5.70
2019-03-01T04:34:50.699Z,5.70
2019-03-01T04:37:23.049Z,5.60
2019-03-01T04:39:53.059Z,5.60
2019-03-01T04:42:23.142Z,5.60
2019-03-01T04:44:53.100Z,5.60
2019-03-01T04:47:22.950Z,5.60
2019-03-01T04:49:55.332Z,5.60
2019-03-01T04:52:34.920Z,5.60
2019-03-01T04:55:08.771Z,5.60
2019-03-01T04:57:41.782Z,5.50
2019-03-01T05:00:18.142Z,5.50
2019-03-01T05:02:49.083Z,5.50
2019-03-01T05:05:19.099Z,5.50
2019-03-01T05:07:52.088Z,5.50
2019-03-01T05:10:23.173Z,5.50
2019-03-01T05:12:52.975Z,5.50
2019-03-01T05:15:26.665Z,5.50
2019-03-01T05:17:56.502Z,5.50
2019-03-01T05:20:29.774Z,5.40
2019-03-01T05:22:59.240Z,5.40
2019-03-01T05:25:29.095Z,5.40
2019-03-01T05:28:03.364Z,5.40
2019-03-01T05:30:36.043Z,5.40
2019-03-01T05:33:07.536Z,5.40
2019-03-01T05:35:38.429Z,5.40
2019-03-01T05:38:08.967Z,5.40
2019-03-01T05:40:41.284Z,5.40
2019-03-01T05:43:13.446Z,5.40
2019-03-01T05:45:44.415Z,5.30
2019-03-01T05:48:14.167Z,5.30
2019-03-01T05:50:45.214Z,5.30
2019-03-01T05:53:17.371Z,5.20
2019-03-01T05:55:48.299Z,5.20
2019-03-01T05:58:34.276Z,5.30
2019-03-01T06:01:20.279Z,5.30
2019-03-01T06:03:57.551Z,5.30
2019-03-01T06:06:41.641Z,5.30
2019-03-01T06:09:44.057Z,5.30
2019-03-01T06:12:36.183Z,5.30
2019-03-01T06:15:24.074Z,5.30
2019-03-01T06:18:17.270Z,5.40
2019-03-01T06:20:54.188Z,5.40
2019-03-01T06:23:28.019Z,5.40
2019-03-01T06:26:10.097Z,5.40
2019-03-01T06:28:54.608Z,5.40
2019-03-01T06:31:42.525Z,5.40
2019-03-01T06:34:38.840Z,5.40
2019-03-01T06:37:44.371Z,5.40
2019-03-01T06:40:24.679Z,5.40
2019-03-01T06:43:12.749Z,5.40
2019-03-01T06:45:48.435Z,5.40
2019-03-01T06:48:35.879Z,5.50
2019-03-01T06:51:08.031Z,5.50
2019-03-01T06:53:38.908Z,5.50
2019-03-01T06:56:11.925Z,5.60
2019-03-01T06:58:41.673Z,5.60
2019-03-01T07:01:12.452Z,5.70
2019-03-01T07:03:43.652Z,5.70
2019-03-01T07:06:13.398Z,5.80
2019-03-01T07:08:44.307Z,5.80
2019-03-01T07:11:14.170Z,5.70
2019-03-01T07:13:46.521Z,5.70
2019-03-01T07:16:16.505Z,5.70
2019-03-01T07:18:47.521Z,5.70
2019-03-01T07:21:20.476Z,5.70
2019-03-01T07:23:52.824Z,5.60
2019-03-01T07:26:22.637Z,5.70
2019-03-01T07:28:55.613Z,5.70
2019-03-01T07:31:25.423Z,5.70
2019-03-01T07:33:56.462Z,5.60
2019-03-01T07:36:27.338Z,5.60
2019-03-01T07:38:57.230Z,5.70
2019-03-01T07:41:28.046Z,5.70
2019-03-01T07:43:59.300Z,5.70
2019-03-01T07:46:30.251Z,5.80
2019-03-01T07:49:00.211Z,5.70
2019-03-01T07:51:31.654Z,5.70
2019-03-01T07:54:01.759Z,5.70
2019-03-01T07:56:31.759Z,5.80
2019-03-01T07:59:01.627Z,5.70
2019-03-01T08:01:34.049Z,5.70
2019-03-01T08:04:04.076Z,5.70
2019-03-01T08:06:34.019Z,5.70
2019-03-01T08:09:05.404Z,5.70
2019-03-01T08:11:36.771Z,5.70
2019-03-01T08:14:07.575Z,5.80
2019-03-01T08:16:38.544Z,5.80
2019-03-01T08:19:11.504Z,5.80
2019-03-01T08:21:42.794Z,5.70
2019-03-01T08:24:15.117Z,5.70
2019-03-01T08:26:46.148Z,5.70
2019-03-01T08:29:16.002Z,5.70
2019-03-01T08:31:48.599Z,5.70
2019-03-01T08:34:18.675Z,5.70
2019-03-01T08:36:52.166Z,5.70
2019-03-01T08:39:23.234Z,5.60
2019-03-01T08:41:54.120Z,5.60
2019-03-01T08:44:25.893Z,5.60
2019-03-01T08:46:55.729Z,5.60
2019-03-01T08:49:25.609Z,5.60
2019-03-01T08:51:54.495Z,5.60
2019-03-01T08:54:26.370Z,5.50
2019-03-01T08:56:58.963Z,5.50
2019-03-01T08:59:30.019Z,5.50
2019-03-01T09:02:00.815Z,5.50
2019-03-01T09:04:37.551Z,5.40
2019-03-01T09:07:02.181Z,5.40
2019-03-01T09:09:33.608Z,5.40
2019-03-01T09:12:03.435Z,5.50
2019-03-01T09:14:34.372Z,5.50
2019-03-01T09:17:05.300Z,5.50
2019-03-01T09:19:36.145Z,5.40
2019-03-01T09:22:06.123Z,5.40
2019-03-01T09:24:37.359Z,5.50
2019-03-01T09:27:08.540Z,5.50
2019-03-01T09:29:41.761Z,5.50
2019-03-01T09:32:10.092Z,5.50
2019-03-01T09:34:42.362Z,5.50
2019-03-01T09:37:12.179Z,5.50
2019-03-01T09:39:42.092Z,5.50
2019-03-01T09:42:15.513Z,5.40
2019-03-01T09:44:48.642Z,5.30
2019-03-01T09:47:19.525Z,5.30
2019-03-01T09:49:50.564Z,5.30
2019-03-01T09:52:23.695Z,5.30
2019-03-01T09:54:55.965Z,5.30
2019-03-01T09:57:26.201Z,5.30
2019-03-01T09:59:58.784Z,5.30
2019-03-01T10:02:28.040Z,5.30
2019-03-01T10:04:58.021Z,5.30
2019-03-01T10:07:27.871Z,5.30
2019-03-01T10:10:00.339Z,5.30
2019-03-01T10:12:33.206Z,5.30
2019-03-01T10:15:05.794Z,5.30
2019-03-01T10:17:36.828Z,5.30
2019-03-01T10:20:10.684Z,5.30
2019-03-01T10:22:41.944Z,5.30
2019-03-01T10:25:17.109Z,5.30
2019-03-01T10:27:48.118Z,5.30
2019-03-01T10:30:25.776Z,5.30
2019-03-01T10:32:55.587Z,5.30
2019-03-01T10:35:27.947Z,5.30
2019-03-01T10:38:00.379Z,5.30
2019-03-01T10:40:33.091Z,5.20
2019-03-01T10:43:05.770Z,5.20
2019-03-01T10:45:36.851Z,5.30
2019-03-01T10:48:07.848Z,5.30
2019-03-01T10:50:39.008Z,5.30
2019-03-01T10:53:09.949Z,5.30
2019-03-01T10:55:41.014Z,5.30
2019-03-01T10:58:12.041Z,5.30
2019-03-01T11:00:43.321Z,5.30
2019-03-01T11:03:15.718Z,5.30
2019-03-01T11:05:47.936Z,5.30
2019-03-01T11:08:17.814Z,5.30
2019-03-01T11:10:48.740Z,5.30
2019-03-01T11:13:21.609Z,5.30
2019-03-01T11:15:51.513Z,5.30
2019-03-01T11:18:22.429Z,5.30
2019-03-01T11:20:54.843Z,5.20
2019-03-01T11:23:26.032Z,5.20
2019-03-01T11:25:55.947Z,5.10
2019-03-01T11:28:25.902Z,5.10
2019-03-01T11:30:58.740Z,5.10
2019-03-01T11:33:31.518Z,5.10
2019-03-01T11:36:02.395Z,5.20
2019-03-01T11:38:33.401Z,5.20
2019-03-01T11:41:03.368Z,5.20
2019-03-01T11:43:34.440Z,5.20
2019-03-01T11:46:04.448Z,5.10
2019-03-01T11:48:34.436Z,5.10
2019-03-01T11:51:06.896Z,5.10
2019-03-01T11:53:39.866Z,5.20
2019-03-01T11:56:09.870Z,5.20
2019-03-01T11:58:42.270Z,5.20
2019-03-01T12:01:17.027Z,5.20
2019-03-01T12:03:47.302Z,5.10
2019-03-01T12:06:18.198Z,5.10
2019-03-01T12:08:48.086Z,5.10
2019-03-01T12:11:17.877Z,5.10
2019-03-01T12:13:47.149Z,5.00
2019-03-01T12:16:18.500Z,5.00
2019-03-01T12:18:49.431Z,5.00
2019-03-01T12:21:20.455Z,5.00
2019-03-01T12:23:52.775Z,4.90
2019-03-01T12:26:22.792Z,4.90
2019-03-01T12:28:52.955Z,4.90
2019-03-01T12:31:22.813Z,4.90
2019-03-01T12:33:52.631Z,4.90
2019-03-01T12:36:23.759Z,4.90
2019-03-01T12:38:53.704Z,4.90
2019-03-01T12:41:24.552Z,4.90
2019-03-01T12:43:55.405Z,4.90
2019-03-01T12:46:24.748Z,4.90
2019-03-01T12:48:54.700Z,5.00
2019-03-01T12:51:25.773Z,5.00
2019-03-01T12:53:58.851Z,5.00
2019-03-01T12:56:31.169Z,5.10
2019-03-01T12:59:02.052Z,5.10
2019-03-01T13:01:33.026Z,5.10
2019-03-01T13:04:05.444Z,5.00
2019-03-01T13:06:38.920Z,5.00
2019-03-01T13:09:11.832Z,5.00
2019-03-01T13:11:42.037Z,5.00
2019-03-01T13:14:13.207Z,5.00
2019-03-01T13:16:43.142Z,5.10
2019-03-01T13:19:13.058Z,5.20
2019-03-01T13:21:45.513Z,5.10
2019-03-01T13:24:17.404Z,5.20
2019-03-01T13:26:48.639Z,5.20
2019-03-01T13:29:22.257Z,5.20
2019-03-01T13:31:51.046Z,5.20
2019-03-01T13:34:20.897Z,5.20
2019-03-01T13:36:51.773Z,5.20
2019-03-01T13:39:23.306Z,5.20
2019-03-01T13:41:56.242Z,5.20
2019-03-01T13:44:27.358Z,5.20
2019-03-01T13:46:59.315Z,5.20
2019-03-01T13:49:31.223Z,5.10
2019-03-01T13:52:01.348Z,5.10
2019-03-01T13:54:32.454Z,5.10
2019-03-01T13:57:02.330Z,5.10
2019-03-01T13:59:37.605Z,5.10
2019-03-01T14:02:08.501Z,5.10
2019-03-01T14:04:40.377Z,5.10
2019-03-01T14:07:11.182Z,5.10
2019-03-01T14:09:41.092Z,5.10
2019-03-01T14:12:10.788Z,5.10
2019-03-01T14:14:41.790Z,5.10
2019-03-01T14:17:11.550Z,5.10
2019-03-01T14:19:42.214Z,5.00
2019-03-01T14:22:14.096Z,5.00
2019-03-01T14:24:45.470Z,5.00
2019-03-01T14:27:15.316Z,5.10
2019-03-01T14:29:45.201Z,5.10
2019-03-01T14:32:20.826Z,5.10
2019-03-01T14:34:48.897Z,5.20
2019-03-01T14:37:19.823Z,5.10
2019-03-01T14:39:49.712Z,5.10
2019-03-01T14:42:20.772Z,5.00
2019-03-01T14:44:50.531Z,5.00
2019-03-01T14:47:21.634Z,5.00
2019-03-01T14:49:53.961Z,4.90
2019-03-01T14:52:23.005Z,4.80
2019-03-01T14:54:53.932Z,4.80
2019-03-01T14:57:27.383Z,4.80
2019-03-01T15:00:00.574Z,4.70
2019-03-01T15:02:40.692Z,4.70
2019-03-01T15:05:17.879Z,4.70
2019-03-01T15:07:45.178Z,4.70
2019-03-01T15:10:15.753Z,4.70
2019-03-01T15:12:45.534Z,4.60
2019-03-01T15:15:17.272Z,4.60
2019-03-01T15:17:48.140Z,4.70
2019-03-01T15:20:23.317Z,4.70
2019-03-01T15:22:51.995Z,4.60
2019-03-01T15:25:21.240Z,4.60
2019-03-01T15:27:53.631Z,4.60
2019-03-01T15:30:23.456Z,4.60
2019-03-01T15:32:56.565Z,4.60
2019-03-01T15:35:28.829Z,4.60
2019-03-01T15:37:59.805Z,4.60
2019-03-01T15:40:33.228Z,4.60
2019-03-01T15:43:04.671Z,4.60
2019-03-01T15:45:36.690Z,4.60
2019-03-01T15:48:08.452Z,4.60
2019-03-01T15:50:41.527Z,4.60
2019-03-01T15:53:14.453Z,4.60
2019-03-01T15:55:45.302Z,4.60
2019-03-01T15:58:16.179Z,4.50
2019-03-01T16:00:47.098Z,4.50
2019-03-01T16:03:17.018Z,4.50
2019-03-01T16:05:47.929Z,4.50
2019-03-01T16:08:18.223Z,4.50
2019-03-01T16:10:51.125Z,4.50
2019-03-01T16:13:24.948Z,4.50
2019-03-01T16:15:55.805Z,4.40
2019-03-01T16:18:28.760Z,4.40
2019-03-01T16:20:58.591Z,4.40
2019-03-01T16:23:30.215Z,4.40
2019-03-01T16:26:02.622Z,4.30
2019-03-01T16:28:33.590Z,4.30
2019-03-01T16:31:04.511Z,4.30
2019-03-01T16:33:35.451Z,4.20
2019-03-01T16:36:08.898Z,4.20
2019-03-01T16:38:47.637Z,4.20
2019-03-01T16:41:14.403Z,4.20
2019-03-01T16:43:43.669Z,4.10
2019-03-01T16:46:13.518Z,4.10
2019-03-01T16:48:43.326Z,4.10
2019-03-01T16:51:15.466Z,4.10
2019-03-01T16:53:46.835Z,4.10
2019-03-01T16:56:17.792Z,4.10
2019-03-01T16:58:48.724Z,4.20
2019-03-01T17:01:21.717Z,4.10
2019-03-01T17:03:53.684Z,4.10
2019-03-01T17:06:25.060Z,4.10
2019-03-01T17:08:54.895Z,4.10
2019-03-01T17:11:25.880Z,4.10
2019-03-01T17:13:55.875Z,4.10
2019-03-01T17:16:26.828Z,4.10
2019-03-01T17:18:56.719Z,4.10
2019-03-01T17:21:29.283Z,4.10
2019-03-01T17:23:58.295Z,4.10
2019-03-01T17:26:30.813Z,4.10
2019-03-01T17:29:04.163Z,4.00
2019-03-01T17:31:35.118Z,4.00
2019-03-01T17:34:04.886Z,4.00
2019-03-01T17:36:38.752Z,4.00
2019-03-01T17:39:09.746Z,4.00
2019-03-01T17:41:44.475Z,4.00
2019-03-01T17:44:13.782Z,4.00
2019-03-01T17:46:43.591Z,4.00
2019-03-01T17:49:12.491Z,4.00
2019-03-01T17:51:43.393Z,4.00
2019-03-01T17:54:15.642Z,3.90
2019-03-01T17:56:46.382Z,3.90
2019-03-01T17:59:18.666Z,3.90
2019-03-01T18:01:49.815Z,3.90
2019-03-01T18:04:21.134Z,3.90
2019-03-01T18:06:51.516Z,3.90
2019-03-01T18:09:22.139Z,3.90
2019-03-01T18:11:51.822Z,3.80
2019-03-01T18:14:23.076Z,3.80
2019-03-01T18:16:57.041Z,3.80
2019-03-01T18:19:26.780Z,3.80
2019-03-01T18:21:56.982Z,3.90
2019-03-01T18:24:28.005Z,3.80
2019-03-01T18:26:58.954Z,3.80
2019-03-01T18:29:29.820Z,3.80
2019-03-01T18:32:00.574Z,3.90
2019-03-01T18:34:35.625Z,3.90
2019-03-01T18:37:17.864Z,3.80
2019-03-01T18:39:38.226Z,3.90
2019-03-01T18:42:11.612Z,3.90
2019-03-01T18:44:42.762Z,3.90
2019-03-01T18:47:12.688Z,3.80
2019-03-01T18:49:43.623Z,3.80
2019-03-01T18:52:17.668Z,3.80
2019-03-01T18:54:50.690Z,3.80
2019-03-01T18:57:20.429Z,3.80
2019-03-01T18:59:50.331Z,3.80
2019-03-01T19:02:24.318Z,3.80
2019-03-01T19:04:55.550Z,3.80
2019-03-01T19:07:27.468Z,3.70
2019-03-01T19:09:59.555Z,3.70
2019-03-01T19:12:30.492Z,3.70
2019-03-01T19:15:00.399Z,3.70
2019-03-01T19:17:33.402Z,3.60
2019-03-01T19:20:32.222Z,3.60
2019-03-01T19:23:01.464Z,3.70
2019-03-01T19:25:32.336Z,3.70
2019-03-01T19:28:03.120Z,3.70
2019-03-01T19:30:32.404Z,3.70
2019-03-01T19:33:04.076Z,3.70
2019-03-01T19:35:33.885Z,3.70
2019-03-01T19:38:03.713Z,3.70
2019-03-01T19:40:33.466Z,3.70
2019-03-01T19:43:09.872Z,3.70
2019-03-01T19:45:40.794Z,3.70
2019-03-01T19:48:13.147Z,3.70
2019-03-01T19:50:43.630Z,3.70
2019-03-01T19:53:14.780Z,3.70
2019-03-01T19:55:47.940Z,3.70
2019-03-01T19:58:18.841Z,3.70
2019-03-01T20:00:49.776Z,3.70
2019-03-01T20:03:20.759Z,3.60
2019-03-01T20:05:51.707Z,3.60
2019-03-01T20:08:22.793Z,3.60
2019-03-01T20:10:53.651Z,3.60
2019-03-01T20:13:24.971Z,3.60
2019-03-01T20:15:58.071Z,3.50
2019-03-01T20:18:34.359Z,3.50
2019-03-01T20:21:05.929Z,3.50
2019-03-01T20:23:37.998Z,3.50
2019-03-01T20:26:08.881Z,3.40
2019-03-01T20:28:38.669Z,3.40
2019-03-01T20:31:08.478Z,3.40
2019-03-01T20:33:40.680Z,3.30
2019-03-01T20:36:13.857Z,3.30
2019-03-01T20:38:44.490Z,3.30
2019-03-01T20:41:15.367Z,3.20
2019-03-01T20:43:46.387Z,3.20
2019-03-01T20:46:17.598Z,3.10
2019-03-01T20:48:49.779Z,3.10
2019-03-01T20:51:26.410Z,3.10
2019-03-01T20:53:54.604Z,3.00
2019-03-01T20:56:26.808Z,3.00
2019-03-01T20:58:56.588Z,3.00
2019-03-01T21:01:27.805Z,2.90
2019-03-01T21:04:01.486Z,2.90
2019-03-01T21:06:34.058Z,2.90
2019-03-01T21:09:07.015Z,2.90
2019-03-01T21:11:37.675Z,2.90
2019-03-01T21:14:10.812Z,2.90
2019-03-01T21:16:41.490Z,2.80
2019-03-01T21:19:13.186Z,2.70
2019-03-01T21:21:49.527Z,2.60
2019-03-01T21:24:22.944Z,2.50
2019-03-01T21:26:54.207Z,2.50
2019-03-01T21:29:25.043Z,2.40
2019-03-01T21:31:56.092Z,2.40
2019-03-01T21:34:27.268Z,2.40
2019-03-01T21:36:59.141Z,2.40
2019-03-01T21:39:28.526Z,2.40
2019-03-01T21:41:59.699Z,2.40
2019-03-01T21:44:31.140Z,2.40
2019-03-01T21:47:01.973Z,2.40
2019-03-01T21:49:32.898Z,2.30
2019-03-01T21:52:03.609Z,2.20
2019-03-01T21:54:34.497Z,2.10
2019-03-01T21:57:05.198Z,2.10
2019-03-01T21:59:37.476Z,2.10
2019-03-01T22:02:08.806Z,2.00
2019-03-01T22:04:39.552Z,2.00
2019-03-01T22:07:10.438Z,2.00
2019-03-01T22:09:41.378Z,2.10
2019-03-01T22:12:12.390Z,2.10
2019-03-01T22:14:45.699Z,2.10
2019-03-01T22:17:15.804Z,2.10
2019-03-01T22:19:46.843Z,2.10
2019-03-01T22:22:17.611Z,2.20
2019-03-01T22:24:48.608Z,2.20
2019-03-01T22:27:21.504Z,2.20
2019-03-01T22:29:53.639Z,2.20
2019-03-01T22:32:24.635Z,2.20
2019-03-01T22:34:53.965Z,2.20
2019-03-01T22:37:28.246Z,2.10
2019-03-01T22:39:57.760Z,2.10
2019-03-01T22:42:28.770Z,2.10
2019-03-01T22:44:59.920Z,2.10
2019-03-01T22:47:32.366Z,2.20
2019-03-01T22:50:03.997Z,2.10
2019-03-01T22:52:35.790Z,2.20
2019-03-01T22:55:09.586Z,2.10
2019-03-01T22:57:40.399Z,2.10
2019-03-01T23:00:31.159Z,2.10
2019-03-01T23:03:02.030Z,2.10
2019-03-01T23:05:35.532Z,2.10
2019-03-01T23:08:04.443Z,2.00
2019-03-01T23:10:34.466Z,2.10
2019-03-01T23:13:05.515Z,2.00
2019-03-01T23:15:35.263Z,2.00
2019-03-01T23:18:07.535Z,2.00
2019-03-01T23:20:38.628Z,1.90
2019-03-01T23:23:10.968Z,1.90
2019-03-01T23:25:46.329Z,1.80
2019-03-01T23:28:18.423Z,1.80
2019-03-01T23:30:49.397Z,1.70
2019-03-01T23:33:21.623Z,1.60
2019-03-01T23:35:52.957Z,1.60
2019-03-01T23:38:22.458Z,1.50
2019-03-01T23:40:54.728Z,1.30
2019-03-01T23:43:27.569Z,1.20
2019-03-01T23:45:59.805Z,1.10
2019-03-01T23:48:30.871Z,1.10
2019-03-01T23:51:01.851Z,1.00
2019-03-01T23:53:34.186Z,1.00
2019-03-01T23:56:07.467Z,1.00
2019-03-01T23:58:38.557Z,1.00
